sensor_id;sensor_type;location;lat;lon;timestamp;pressure;altitude;pressure_sealevel;temperature;humidity
63009;BME280;49099;28.428;-16.488;2023-03-01T00:01:20;99172.06;;;18.27;64.61
63009;BME280;49099;28.428;-16.488;2023-03-01T00:03:48;99165.13;;;18.26;64.52
63009;BME280;49099;28.428;-16.488;2023-03-01T00:06:15;99163.81;;;18.23;64.14
63009;BME280;49099;28.428;-16.488;2023-03-01T00:08:42;99166.22;;;18.25;63.65
63009;BME280;49099;28.428;-16.488;2023-03-01T00:11:19;99161.94;;;18.24;63.51
63009;BME280;49099;28.428;-16.488;2023-03-01T00:13:49;99158.47;;;18.23;63.72
63009;BME280;49099;28.428;-16.488;2023-03-01T00:16:26;99157.06;;;18.26;63.03
63009;BME280;49099;28.428;-16.488;2023-03-01T00:18:55;99152.28;;;18.23;63.11
63009;BME280;49099;28.428;-16.488;2023-03-01T00:21:23;99154.88;;;18.28;63.46
63009;BME280;49099;28.428;-16.488;2023-03-01T00:23:52;99147.72;;;18.37;63.28
63009;BME280;49099;28.428;-16.488;2023-03-01T00:26:21;99146.50;;;18.43;62.88
63009;BME280;49099;28.428;-16.488;2023-03-01T00:28:49;99138.66;;;18.47;62.81
63009;BME280;49099;28.428;-16.488;2023-03-01T00:31:23;99143.44;;;18.50;62.45
63009;BME280;49099;28.428;-16.488;2023-03-01T00:33:55;99144.53;;;18.49;62.46
63009;BME280;49099;28.428;-16.488;2023-03-01T00:36:25;99140.56;;;18.46;62.74
63009;BME280;49099;28.428;-16.488;2023-03-01T00:38:53;99141.53;;;18.50;62.26
63009;BME280;49099;28.428;-16.488;2023-03-01T00:41:20;99130.78;;;18.50;62.04
63009;BME280;49099;28.428;-16.488;2023-03-01T00:43:49;99138.06;;;18.50;62.62
63009;BME280;49099;28.428;-16.488;2023-03-01T00:46:19;99141.03;;;18.48;62.26
63009;BME280;49099;28.428;-16.488;2023-03-01T00:48:47;99142.63;;;18.49;62.18
63009;BME280;49099;28.428;-16.488;2023-03-01T00:51:15;99141.22;;;18.52;61.96
63009;BME280;49099;28.428;-16.488;2023-03-01T00:53:44;99149.50;;;18.55;61.92
63009;BME280;49099;28.428;-16.488;2023-03-01T00:56:13;99143.34;;;18.55;61.66
63009;BME280;49099;28.428;-16.488;2023-03-01T00:58:41;99150.28;;;18.56;61.06
63009;BME280;49099;28.428;-16.488;2023-03-01T01:01:13;99151.88;;;18.57;61.71
63009;BME280;49099;28.428;-16.488;2023-03-01T01:03:49;99155.66;;;18.56;61.23
63009;BME280;49099;28.428;-16.488;2023-03-01T01:06:51;99159.84;;;18.48;61.52
63009;BME280;49099;28.428;-16.488;2023-03-01T01:09:13;99151.47;;;18.36;61.69
63009;BME280;49099;28.428;-16.488;2023-03-01T01:11:49;99149.22;;;18.29;62.00
63009;BME280;49099;28.428;-16.488;2023-03-01T01:14:17;99131.59;;;18.23;62.10
63009;BME280;49099;28.428;-16.488;2023-03-01T01:16:45;99136.28;;;18.18;62.52
63009;BME280;49099;28.428;-16.488;2023-03-01T01:19:12;99128.81;;;18.15;62.42
63009;BME280;49099;28.428;-16.488;2023-03-01T01:21:40;99124.94;;;18.07;62.87
63009;BME280;49099;28.428;-16.488;2023-03-01T01:24:10;99118.25;;;18.04;62.90
63009;BME280;49099;28.428;-16.488;2023-03-01T01:26:37;99117.19;;;18.05;63.01
63009;BME280;49099;28.428;-16.488;2023-03-01T01:29:04;99110.13;;;18.09;63.34
63009;BME280;49099;28.428;-16.488;2023-03-01T01:31:33;99106.94;;;18.07;63.01
63009;BME280;49099;28.428;-16.488;2023-03-01T01:34:02;99112.31;;;18.07;63.34
63009;BME280;49099;28.428;-16.488;2023-03-01T01:36:30;99106.81;;;18.13;63.33
63009;BME280;49099;28.428;-16.488;2023-03-01T01:38:58;99097.09;;;18.17;63.64
63009;BME280;49099;28.428;-16.488;2023-03-01T01:41:28;99097.00;;;18.22;62.92
63009;BME280;49099;28.428;-16.488;2023-03-01T01:44:15;99097.41;;;18.29;63.44
63009;BME280;49099;28.428;-16.488;2023-03-01T01:46:49;99096.59;;;18.28;62.41
63009;BME280;49099;28.428;-16.488;2023-03-01T01:49:33;99094.81;;;18.24;62.64
63009;BME280;49099;28.428;-16.488;2023-03-01T01:57:19;99087.44;;;18.16;62.71
63009;BME280;49099;28.428;-16.488;2023-03-01T01:59:52;99087.25;;;18.12;62.26
63009;BME280;49099;28.428;-16.488;2023-03-01T02:02:21;99093.31;;;18.04;62.18
63009;BME280;49099;28.428;-16.488;2023-03-01T02:04:53;99095.81;;;18.00;62.55
63009;BME280;49099;28.428;-16.488;2023-03-01T02:07:23;99088.25;;;18.02;62.32
63009;BME280;49099;28.428;-16.488;2023-03-01T02:09:52;99096.78;;;18.04;62.22
63009;BME280;49099;28.428;-16.488;2023-03-01T02:12:23;99094.63;;;18.06;62.12
63009;BME280;49099;28.428;-16.488;2023-03-01T02:14:51;99095.81;;;18.00;62.05
63009;BME280;49099;28.428;-16.488;2023-03-01T02:17:18;99093.81;;;18.06;62.51
63009;BME280;49099;28.428;-16.488;2023-03-01T02:22:24;99094.63;;;18.06;62.01
63009;BME280;49099;28.428;-16.488;2023-03-01T02:25:04;99091.72;;;18.03;62.04
63009;BME280;49099;28.428;-16.488;2023-03-01T02:27:53;99100.94;;;17.97;62.66
63009;BME280;49099;28.428;-16.488;2023-03-01T02:30:25;99086.44;;;17.84;62.46
63009;BME280;49099;28.428;-16.488;2023-03-01T02:32:54;99084.44;;;17.76;62.69
63009;BME280;49099;28.428;-16.488;2023-03-01T02:35:38;99091.78;;;17.70;63.04
63009;BME280;49099;28.428;-16.488;2023-03-01T02:38:07;99083.00;;;17.65;63.33
63009;BME280;49099;28.428;-16.488;2023-03-01T02:40:36;99072.56;;;17.63;63.11
63009;BME280;49099;28.428;-16.488;2023-03-01T02:43:08;99069.28;;;17.66;64.28
63009;BME280;49099;28.428;-16.488;2023-03-01T02:45:37;99070.09;;;17.67;64.06
63009;BME280;49099;28.428;-16.488;2023-03-01T02:48:04;99065.81;;;17.66;64.05
63009;BME280;49099;28.428;-16.488;2023-03-01T02:51:05;99053.41;;;17.70;63.53
63009;BME280;49099;28.428;-16.488;2023-03-01T02:53:41;99045.97;;;17.67;64.57
63009;BME280;49099;28.428;-16.488;2023-03-01T02:56:13;99033.56;;;17.71;65.21
63009;BME280;49099;28.428;-16.488;2023-03-01T02:58:41;99037.75;;;17.77;65.11
63009;BME280;49099;28.428;-16.488;2023-03-01T03:01:12;99026.41;;;17.80;65.26
63009;BME280;49099;28.428;-16.488;2023-03-01T03:03:43;99021.25;;;17.84;64.88
63009;BME280;49099;28.428;-16.488;2023-03-01T03:06:10;99018.56;;;17.84;64.87
63009;BME280;49099;28.428;-16.488;2023-03-01T03:08:37;99011.72;;;17.77;65.08
63009;BME280;49099;28.428;-16.488;2023-03-01T03:11:04;99014.69;;;17.76;65.35
63009;BME280;49099;28.428;-16.488;2023-03-01T03:13:32;99007.75;;;17.75;65.00
63009;BME280;49099;28.428;-16.488;2023-03-01T03:15:59;99001.38;;;17.71;65.22
63009;BME280;49099;28.428;-16.488;2023-03-01T03:18:28;98995.00;;;17.67;65.34
63009;BME280;49099;28.428;-16.488;2023-03-01T03:20:56;98980.25;;;17.64;65.54
63009;BME280;49099;28.428;-16.488;2023-03-01T03:23:23;98985.94;;;17.63;65.14
63009;BME280;49099;28.428;-16.488;2023-03-01T03:25:51;98978.97;;;17.62;65.06
63009;BME280;49099;28.428;-16.488;2023-03-01T03:28:18;98974.19;;;17.59;64.86
63009;BME280;49099;28.428;-16.488;2023-03-01T03:30:45;98976.31;;;17.62;65.62
63009;BME280;49099;28.428;-16.488;2023-03-01T03:33:13;98974.53;;;17.71;64.79
63009;BME280;49099;28.428;-16.488;2023-03-01T03:35:43;98971.38;;;17.83;64.90
63009;BME280;49099;28.428;-16.488;2023-03-01T03:38:12;98977.22;;;17.85;63.98
63009;BME280;49099;28.428;-16.488;2023-03-01T03:43:19;98979.28;;;17.74;63.87
63009;BME280;49099;28.428;-16.488;2023-03-01T03:45:48;98977.13;;;17.76;64.27
63009;BME280;49099;28.428;-16.488;2023-03-01T03:48:18;98975.94;;;17.82;64.19
63009;BME280;49099;28.428;-16.488;2023-03-01T03:50:53;98971.38;;;17.83;63.72
63009;BME280;49099;28.428;-16.488;2023-03-01T03:53:22;98974.72;;;17.88;63.34
63009;BME280;49099;28.428;-16.488;2023-03-01T03:55:50;98971.25;;;17.88;63.44
63009;BME280;49099;28.428;-16.488;2023-03-01T03:58:19;98982.47;;;17.90;63.88
63009;BME280;49099;28.428;-16.488;2023-03-01T04:00:49;98982.06;;;17.96;63.86
63009;BME280;49099;28.428;-16.488;2023-03-01T04:03:18;98990.03;;;18.01;63.23
63009;BME280;49099;28.428;-16.488;2023-03-01T04:05:46;98976.69;;;17.96;63.16
63009;BME280;49099;28.428;-16.488;2023-03-01T04:08:14;98978.59;;;17.96;63.52
63009;BME280;49099;28.428;-16.488;2023-03-01T04:10:46;98988.53;;;17.95;63.63
63009;BME280;49099;28.428;-16.488;2023-03-01T04:13:20;98969.88;;;17.90;63.41
63009;BME280;49099;28.428;-16.488;2023-03-01T04:15:49;98974.72;;;17.88;63.50
63009;BME280;49099;28.428;-16.488;2023-03-01T04:18:19;98964.78;;;17.89;63.92
63009;BME280;49099;28.428;-16.488;2023-03-01T04:20:47;98959.41;;;17.89;64.16
63009;BME280;49099;28.428;-16.488;2023-03-01T04:23:17;98960.91;;;17.95;64.61
63009;BME280;49099;28.428;-16.488;2023-03-01T04:25:55;98970.75;;;17.99;63.97
63009;BME280;49099;28.428;-16.488;2023-03-01T04:28:29;98976.13;;;17.99;64.42
63009;BME280;49099;28.428;-16.488;2023-03-01T04:30:58;98982.88;;;17.97;64.63
63009;BME280;49099;28.428;-16.488;2023-03-01T04:33:25;98978.28;;;17.97;63.64
63009;BME280;49099;28.428;-16.488;2023-03-01T04:35:52;98977.63;;;17.92;63.83
63009;BME280;49099;28.428;-16.488;2023-03-01T04:38:20;98986.47;;;17.92;64.57
63009;BME280;49099;28.428;-16.488;2023-03-01T04:40:48;98984.09;;;17.91;64.12
63009;BME280;49099;28.428;-16.488;2023-03-01T04:43:15;98980.41;;;17.87;64.76
63009;BME280;49099;28.428;-16.488;2023-03-01T04:45:42;98985.47;;;17.88;64.47
63009;BME280;49099;28.428;-16.488;2023-03-01T04:48:09;98981.88;;;17.79;65.08
63009;BME280;49099;28.428;-16.488;2023-03-01T04:50:36;98982.28;;;17.72;65.95
63009;BME280;49099;28.428;-16.488;2023-03-01T04:53:03;98975.13;;;17.68;66.27
63009;BME280;49099;28.428;-16.488;2023-03-01T04:55:31;98986.56;;;17.73;66.51
63009;BME280;49099;28.428;-16.488;2023-03-01T04:57:58;98983.06;;;17.73;67.23
63009;BME280;49099;28.428;-16.488;2023-03-01T05:00:25;98983.66;;;17.70;67.75
63009;BME280;49099;28.428;-16.488;2023-03-01T05:02:56;98976.44;;;17.70;68.00
63009;BME280;49099;28.428;-16.488;2023-03-01T05:05:31;98970.53;;;17.68;67.86
63009;BME280;49099;28.428;-16.488;2023-03-01T05:08:01;98980.47;;;17.68;67.99
63009;BME280;49099;28.428;-16.488;2023-03-01T05:10:30;98975.13;;;17.68;67.66
63009;BME280;49099;28.428;-16.488;2023-03-01T05:12:58;98980.91;;;17.75;67.49
63009;BME280;49099;28.428;-16.488;2023-03-01T05:15:26;98976.03;;;17.77;67.53
63009;BME280;49099;28.428;-16.488;2023-03-01T05:17:56;98971.16;;;17.79;67.71
63009;BME280;49099;28.428;-16.488;2023-03-01T05:20:29;98970.56;;;17.82;67.77
63009;BME280;49099;28.428;-16.488;2023-03-01T05:22:59;98983.38;;;17.85;67.71
63009;BME280;49099;28.428;-16.488;2023-03-01T05:25:27;98981.97;;;17.88;67.57
63009;BME280;49099;28.428;-16.488;2023-03-01T05:27:56;98987.03;;;17.89;68.23
63009;BME280;49099;28.428;-16.488;2023-03-01T05:30:23;98983.28;;;17.90;68.51
63009;BME280;49099;28.428;-16.488;2023-03-01T05:32:50;98979.31;;;17.88;68.87
63009;BME280;49099;28.428;-16.488;2023-03-01T05:35:22;98988.44;;;17.87;68.92
63009;BME280;49099;28.428;-16.488;2023-03-01T05:37:50;98990.03;;;17.88;68.91
63009;BME280;49099;28.428;-16.488;2023-03-01T05:40:19;98987.03;;;17.89;68.92
63009;BME280;49099;28.428;-16.488;2023-03-01T05:42:53;98983.28;;;17.90;69.32
63009;BME280;49099;28.428;-16.488;2023-03-01T05:45:25;98969.97;;;17.85;69.72
63009;BME280;49099;28.428;-16.488;2023-03-01T05:47:53;98977.53;;;17.83;69.38
63009;BME280;49099;28.428;-16.488;2023-03-01T05:50:29;98975.34;;;17.85;68.84
63009;BME280;49099;28.428;-16.488;2023-03-01T05:53:04;98972.03;;;17.88;67.98
63009;BME280;49099;28.428;-16.488;2023-03-01T05:55:32;98967.97;;;17.91;67.47
63009;BME280;49099;28.428;-16.488;2023-03-01T05:58:04;98959.63;;;17.92;66.82
63009;BME280;49099;28.428;-16.488;2023-03-01T06:00:32;98959.00;;;17.95;66.80
63009;BME280;49099;28.428;-16.488;2023-03-01T06:03:00;98948.66;;;18.02;66.54
63009;BME280;49099;28.428;-16.488;2023-03-01T06:05:28;98952.34;;;18.06;66.30
63009;BME280;49099;28.428;-16.488;2023-03-01T06:07:59;98952.22;;;18.12;65.56
63009;BME280;49099;28.428;-16.488;2023-03-01T06:10:26;98958.59;;;18.16;65.97
63009;BME280;49099;28.428;-16.488;2023-03-01T06:12:53;98972.50;;;18.18;65.48
63009;BME280;49099;28.428;-16.488;2023-03-01T06:15:21;98974.09;;;18.19;65.99
63009;BME280;49099;28.428;-16.488;2023-03-01T06:17:49;98978.47;;;18.15;66.90
63009;BME280;49099;28.428;-16.488;2023-03-01T06:20:20;98976.91;;;18.14;67.28
63009;BME280;49099;28.428;-16.488;2023-03-01T06:22:48;98976.91;;;18.14;66.82
63009;BME280;49099;28.428;-16.488;2023-03-01T06:25:18;98979.06;;;18.12;66.88
63009;BME280;49099;28.428;-16.488;2023-03-01T06:27:47;98978.88;;;18.08;67.01
63009;BME280;49099;28.428;-16.488;2023-03-01T06:30:17;98978.69;;;18.04;67.17
63009;BME280;49099;28.428;-16.488;2023-03-01T06:32:45;98980.28;;;18.05;66.65
63009;BME280;49099;28.428;-16.488;2023-03-01T06:35:14;98968.94;;;18.08;65.79
63009;BME280;49099;28.428;-16.488;2023-03-01T06:37:45;98964.53;;;18.13;65.88
63009;BME280;49099;28.428;-16.488;2023-03-01T06:40:13;98970.13;;;18.16;65.29
63009;BME280;49099;28.428;-16.488;2023-03-01T06:42:42;98971.88;;;18.21;65.15
63009;BME280;49099;28.428;-16.488;2023-03-01T06:45:10;98970.31;;;18.20;64.93
63009;BME280;49099;28.428;-16.488;2023-03-01T06:47:38;98969.72;;;18.23;64.82
63009;BME280;49099;28.428;-16.488;2023-03-01T06:50:06;98974.47;;;18.26;64.99
63009;BME280;49099;28.428;-16.488;2023-03-01T06:52:33;98981.25;;;18.23;64.59
63009;BME280;49099;28.428;-16.488;2023-03-01T06:55:00;98990.69;;;18.21;65.02
63009;BME280;49099;28.428;-16.488;2023-03-01T06:57:28;98991.19;;;18.23;65.06
63009;BME280;49099;28.428;-16.488;2023-03-01T06:59:55;98985.22;;;18.26;65.37
63009;BME280;49099;28.428;-16.488;2023-03-01T07:02:22;98983.81;;;18.28;64.55
63009;BME280;49099;28.428;-16.488;2023-03-01T07:04:50;98992.38;;;18.30;64.31
63009;BME280;49099;28.428;-16.488;2023-03-01T07:07:18;98999.50;;;18.35;64.04
63009;BME280;49099;28.428;-16.488;2023-03-01T07:09:46;98998.91;;;18.38;64.06
63009;BME280;49099;28.428;-16.488;2023-03-01T07:12:14;98997.34;;;18.37;63.83
63009;BME280;49099;28.428;-16.488;2023-03-01T07:14:41;99001.72;;;18.33;64.15
63009;BME280;49099;28.428;-16.488;2023-03-01T07:17:10;98996.66;;;18.31;64.38
63009;BME280;49099;28.428;-16.488;2023-03-01T07:19:38;98993.75;;;18.28;64.15
63009;BME280;49099;28.428;-16.488;2023-03-01T07:22:05;98990.09;;;18.24;63.51
63009;BME280;49099;28.428;-16.488;2023-03-01T07:24:34;98984.03;;;18.18;63.17
63009;BME280;49099;28.428;-16.488;2023-03-01T07:27:02;98985.13;;;18.17;63.70
63009;BME280;49099;28.428;-16.488;2023-03-01T07:29:29;98980.84;;;18.16;63.73
63009;BME280;49099;28.428;-16.488;2023-03-01T07:31:56;98988.59;;;18.18;62.79
63009;BME280;49099;28.428;-16.488;2023-03-01T07:34:24;98991.59;;;18.16;62.53
63009;BME280;49099;28.428;-16.488;2023-03-01T07:36:51;98988.59;;;18.18;62.93
63009;BME280;49099;28.428;-16.488;2023-03-01T07:39:19;98995.88;;;18.17;62.73
63009;BME280;49099;28.428;-16.488;2023-03-01T07:41:51;99003.63;;;18.19;62.76
63009;BME280;49099;28.428;-16.488;2023-03-01T07:44:33;98998.72;;;18.21;62.32
63009;BME280;49099;28.428;-16.488;2023-03-01T07:47:14;99004.09;;;18.21;61.97
63009;BME280;49099;28.428;-16.488;2023-03-01T07:49:41;99009.47;;;18.21;61.51
63009;BME280;49099;28.428;-16.488;2023-03-01T07:52:11;99019.63;;;18.24;61.72
63009;BME280;49099;28.428;-16.488;2023-03-01T07:54:38;99012.16;;;18.21;61.17
63009;BME280;49099;28.428;-16.488;2023-03-01T07:57:06;99020.22;;;18.21;61.32
63009;BME280;49099;28.428;-16.488;2023-03-01T07:59:33;99026.41;;;18.21;60.98
63009;BME280;49099;28.428;-16.488;2023-03-01T08:02:00;99034.16;;;18.23;61.88
63009;BME280;49099;28.428;-16.488;2023-03-01T08:04:27;99034.94;;;18.23;60.97
63009;BME280;49099;28.428;-16.488;2023-03-01T08:06:54;99035.13;;;18.27;61.05
63009;BME280;49099;28.428;-16.488;2023-03-01T08:09:22;99037.81;;;18.27;60.51
63009;BME280;49099;28.428;-16.488;2023-03-01T08:11:49;99041.59;;;18.26;61.02
63009;BME280;49099;28.428;-16.488;2023-03-01T08:14:16;99041.09;;;18.24;60.83
63009;BME280;49099;28.428;-16.488;2023-03-01T08:16:44;99047.88;;;18.21;60.89
63009;BME280;49099;28.428;-16.488;2023-03-01T08:19:11;99055.63;;;18.23;60.75
63009;BME280;49099;28.428;-16.488;2023-03-01T08:21:39;99048.28;;;18.15;61.14
63009;BME280;49099;28.428;-16.488;2023-03-01T08:24:07;99059.41;;;18.22;61.09
63009;BME280;49099;28.428;-16.488;2023-03-01T08:26:34;99062.38;;;18.20;60.40
63009;BME280;49099;28.428;-16.488;2023-03-01T08:29:02;99063.16;;;18.21;60.98
63009;BME280;49099;28.428;-16.488;2023-03-01T08:31:35;99057.22;;;18.24;61.18
63009;BME280;49099;28.428;-16.488;2023-03-01T08:34:11;99054.44;;;18.29;61.54
63009;BME280;49099;28.428;-16.488;2023-03-01T08:36:41;99055.63;;;18.36;61.10
63009;BME280;49099;28.428;-16.488;2023-03-01T08:39:11;99058.97;;;18.42;60.91
63009;BME280;49099;28.428;-16.488;2023-03-01T08:41:38;99056.50;;;18.46;60.73
63009;BME280;49099;28.428;-16.488;2023-03-01T08:44:06;99057.16;;;18.51;61.06
63009;BME280;49099;28.428;-16.488;2023-03-01T08:46:40;99056.75;;;18.58;60.94
63009;BME280;49099;28.428;-16.488;2023-03-01T08:49:13;99059.03;;;18.64;61.13
63009;BME280;49099;28.428;-16.488;2023-03-01T08:51:41;99056.13;;;18.75;60.65
63009;BME280;49099;28.428;-16.488;2023-03-01T08:54:15;99067.88;;;18.79;60.26
63009;BME280;49099;28.428;-16.488;2023-03-01T08:56:43;99059.19;;;18.82;60.71
63009;BME280;49099;28.428;-16.488;2023-03-01T08:59:11;99061.69;;;18.92;60.36
63009;BME280;49099;28.428;-16.488;2023-03-01T09:01:39;99060.09;;;18.91;59.88
63009;BME280;49099;28.428;-16.488;2023-03-01T09:04:06;99070.69;;;18.96;60.12
63009;BME280;49099;28.428;-16.488;2023-03-01T09:06:34;99067.22;;;18.96;59.69
63009;BME280;49099;28.428;-16.488;2023-03-01T09:09:02;99065.03;;;18.98;59.61
63009;BME280;49099;28.428;-16.488;2023-03-01T09:11:30;99059.22;;;19.04;59.22
63009;BME280;49099;28.428;-16.488;2023-03-01T09:13:57;99063.38;;;19.10;59.70
63009;BME280;49099;28.428;-16.488;2023-03-01T09:16:24;99072.94;;;19.16;59.62
63009;BME280;49099;28.428;-16.488;2023-03-01T09:18:53;99077.25;;;19.26;59.54
63009;BME280;49099;28.428;-16.488;2023-03-01T09:21:22;99084.28;;;19.36;58.92
63009;BME280;49099;28.428;-16.488;2023-03-01T09:24:06;99087.63;;;19.41;59.30
63009;BME280;49099;28.428;-16.488;2023-03-01T09:26:38;99087.22;;;19.48;58.72
63009;BME280;49099;28.428;-16.488;2023-03-01T09:29:05;99090.25;;;19.55;58.71
63009;BME280;49099;28.428;-16.488;2023-03-01T09:31:32;99093.03;;;19.64;58.47
63009;BME280;49099;28.428;-16.488;2023-03-01T09:33:59;99089.09;;;19.70;58.43
63009;BME280;49099;28.428;-16.488;2023-03-01T09:36:26;99087.56;;;19.78;58.35
63009;BME280;49099;28.428;-16.488;2023-03-01T09:38:54;99089.00;;;19.84;58.29
63009;BME280;49099;28.428;-16.488;2023-03-01T09:44:34;99082.25;;;19.95;58.10
63009;BME280;49099;28.428;-16.488;2023-03-01T09:47:05;99087.00;;;19.98;57.94
63009;BME280;49099;28.428;-16.488;2023-03-01T09:49:40;99080.22;;;20.00;57.96
63009;BME280;49099;28.428;-16.488;2023-03-01T09:52:28;99077.22;;;20.02;57.31
63009;BME280;49099;28.428;-16.488;2023-03-01T09:54:56;99076.72;;;20.00;57.38
63009;BME280;49099;28.428;-16.488;2023-03-01T09:57:50;99071.81;;;20.02;56.69
63009;BME280;49099;28.428;-16.488;2023-03-01T10:08:38;99072.84;;;19.84;57.88
63009;BME280;49099;28.428;-16.488;2023-03-01T10:11:38;99073.81;;;19.88;57.85
63009;BME280;49099;28.428;-16.488;2023-03-01T10:14:31;99072.06;;;19.92;58.67
63009;BME280;49099;28.428;-16.488;2023-03-01T10:19:42;99057.78;;;19.83;61.11
63009;BME280;49099;28.428;-16.488;2023-03-01T10:24:42;99062.53;;;19.77;62.02
63009;BME280;49099;28.428;-16.488;2023-03-01T10:27:45;99065.41;;;19.81;61.59
63009;BME280;49099;28.428;-16.488;2023-03-01T10:30:50;99066.50;;;19.80;61.74
63009;BME280;49099;28.428;-16.488;2023-03-01T10:33:31;99073.69;;;19.93;61.21
63009;BME280;49099;28.428;-16.488;2023-03-01T10:35:59;99071.94;;;19.97;60.04
63009;BME280;49099;28.428;-16.488;2023-03-01T10:38:30;99066.44;;;20.02;60.30
63009;BME280;49099;28.428;-16.488;2023-03-01T10:41:15;99079.25;;;20.05;60.55
63009;BME280;49099;28.428;-16.488;2023-03-01T10:43:49;99078.94;;;20.07;58.79
63009;BME280;49099;28.428;-16.488;2023-03-01T10:49:23;99073.13;;;20.13;59.70
63009;BME280;49099;28.428;-16.488;2023-03-01T10:51:53;99072.84;;;20.23;60.17
63009;BME280;49099;28.428;-16.488;2023-03-01T10:54:32;99070.63;;;20.25;59.65
63009;BME280;49099;28.428;-16.488;2023-03-01T10:57:01;99069.38;;;20.31;58.98
63009;BME280;49099;28.428;-16.488;2023-03-01T10:59:32;99075.56;;;20.32;58.44
63009;BME280;49099;28.428;-16.488;2023-03-01T11:02:25;99075.25;;;20.42;58.30
63009;BME280;49099;28.428;-16.488;2023-03-01T11:08:08;99082.44;;;20.55;56.74
63009;BME280;49099;28.428;-16.488;2023-03-01T11:10:37;99077.34;;;20.54;57.18
63009;BME280;49099;28.428;-16.488;2023-03-01T11:13:15;99071.19;;;20.62;56.43
63009;BME280;49099;28.428;-16.488;2023-03-01T11:15:58;99069.44;;;20.66;56.75
63009;BME280;49099;28.428;-16.488;2023-03-01T11:18:29;99076.59;;;20.71;55.93
63009;BME280;49099;28.428;-16.488;2023-03-01T11:21:12;99082.78;;;20.71;56.38
63009;BME280;49099;28.428;-16.488;2023-03-01T11:23:40;99089.91;;;20.76;56.80
63009;BME280;49099;28.428;-16.488;2023-03-01T11:26:12;99091.66;;;20.80;57.42
63009;BME280;49099;28.428;-16.488;2023-03-01T11:28:41;99091.81;;;20.84;57.13
63009;BME280;49099;28.428;-16.488;2023-03-01T11:31:11;99093.25;;;20.81;57.09
63009;BME280;49099;28.428;-16.488;2023-03-01T11:33:59;99087.53;;;20.92;57.92
63009;BME280;49099;28.428;-16.488;2023-03-01T11:36:39;99084.03;;;21.00;56.53
63009;BME280;49099;28.428;-16.488;2023-03-01T11:39:36;99088.16;;;21.06;56.94
63009;BME280;49099;28.428;-16.488;2023-03-01T11:45:02;99076.75;;;21.18;56.52
63009;BME280;49099;28.428;-16.488;2023-03-01T11:50:50;99066.75;;;21.35;55.70
63009;BME280;49099;28.428;-16.488;2023-03-01T12:04:57;99065.28;;;21.47;57.62
63009;BME280;49099;28.428;-16.488;2023-03-01T12:07:46;99062.78;;;21.41;56.20
63009;BME280;49099;28.428;-16.488;2023-03-01T12:10:24;99052.91;;;21.46;56.00
63009;BME280;49099;28.428;-16.488;2023-03-01T12:15:49;99037.00;;;21.53;55.73
63009;BME280;49099;28.428;-16.488;2023-03-01T12:18:39;99038.75;;;21.57;55.51
63009;BME280;49099;28.428;-16.488;2023-03-01T12:24:21;99038.31;;;21.85;54.51
63009;BME280;49099;28.428;-16.488;2023-03-01T12:29:42;99042.38;;;22.00;54.86
63009;BME280;49099;28.428;-16.488;2023-03-01T12:35:04;99055.22;;;21.73;54.58
63009;BME280;49099;28.428;-16.488;2023-03-01T12:37:40;99062.19;;;21.74;53.74
63009;BME280;49099;28.428;-16.488;2023-03-01T12:51:19;99034.19;;;21.87;54.30
63009;BME280;49099;28.428;-16.488;2023-03-01T12:53:48;99029.38;;;21.93;54.29
63009;BME280;49099;28.428;-16.488;2023-03-01T12:56:22;99027.00;;;21.91;53.33
63009;BME280;49099;28.428;-16.488;2023-03-01T12:59:12;99043.38;;;21.86;53.47
63009;BME280;49099;28.428;-16.488;2023-03-01T13:07:41;99028.22;;;21.73;55.32
63009;BME280;49099;28.428;-16.488;2023-03-01T13:12:51;99020.06;;;21.82;54.58
63009;BME280;49099;28.428;-16.488;2023-03-01T13:20:44;99006.91;;;21.80;53.10
63009;BME280;49099;28.428;-16.488;2023-03-01T13:31:08;98987.91;;;21.97;52.53
63009;BME280;49099;28.428;-16.488;2023-03-01T13:39:00;98987.06;;;22.35;51.85
63009;BME280;49099;28.428;-16.488;2023-03-01T13:44:35;98983.59;;;22.68;50.66
63009;BME280;49099;28.428;-16.488;2023-03-01T13:49:57;98980.44;;;22.87;49.57
63009;BME280;49099;28.428;-16.488;2023-03-01T13:52:53;98983.59;;;22.68;49.60
63009;BME280;49099;28.428;-16.488;2023-03-01T13:55:34;98979.84;;;22.60;50.15
63009;BME280;49099;28.428;-16.488;2023-03-01T13:58:19;98980.13;;;22.46;50.09
63009;BME280;49099;28.428;-16.488;2023-03-01T14:00:47;98985.06;;;22.44;50.58
63009;BME280;49099;28.428;-16.488;2023-03-01T14:03:22;98976.97;;;22.44;50.93
63009;BME280;49099;28.428;-16.488;2023-03-01T14:08:43;98978.72;;;22.40;52.56
63009;BME280;49099;28.428;-16.488;2023-03-01T14:11:37;98971.41;;;22.41;52.16
63009;BME280;49099;28.428;-16.488;2023-03-01T14:19:30;98958.22;;;22.39;51.09
63009;BME280;49099;28.428;-16.488;2023-03-01T14:24:51;98960.00;;;22.14;52.18
63009;BME280;49099;28.428;-16.488;2023-03-01T14:27:19;98955.13;;;22.08;53.13
63009;BME280;49099;28.428;-16.488;2023-03-01T14:30:00;98952.97;;;21.92;54.60
63009;BME280;49099;28.428;-16.488;2023-03-01T14:32:30;98942.84;;;21.89;54.23
63009;BME280;49099;28.428;-16.488;2023-03-01T14:34:59;98948.22;;;21.89;54.02
63009;BME280;49099;28.428;-16.488;2023-03-01T14:37:29;98940.31;;;22.14;53.81
63009;BME280;49099;28.428;-16.488;2023-03-01T14:39:59;98940.91;;;22.40;52.19
63009;BME280;49099;28.428;-16.488;2023-03-01T14:42:28;98940.38;;;22.47;50.88
63009;BME280;49099;28.428;-16.488;2023-03-01T14:44:57;98929.69;;;22.50;51.02
63009;BME280;49099;28.428;-16.488;2023-03-01T14:47:35;98930.34;;;22.47;50.07
63009;BME280;49099;28.428;-16.488;2023-03-01T14:50:09;98935.50;;;22.40;52.50
63009;BME280;49099;28.428;-16.488;2023-03-01T14:52:38;98936.75;;;22.22;53.61
63009;BME280;49099;28.428;-16.488;2023-03-01T14:55:19;98936.50;;;22.15;54.09
63009;BME280;49099;28.428;-16.488;2023-03-01T14:57:48;98929.84;;;22.12;54.32
63009;BME280;49099;28.428;-16.488;2023-03-01T15:00:22;98921.78;;;22.04;54.67